Time;durP1;ratioP1;P1;durP2;ratioP2;P2;SDS_P1;SDS_P2;PMS_P1;PMS_P2;Temp;Humidity;BMP_temperature;BMP_pressure;BME280_temperature;BME280_humidity;BME280_pressure;Samples;Min_cycle;Max_cycle;Signal;HPM_P1;HPM_P2
2024/04/12 00:01:11;;;;;;;0.80;0.50;;;11.30;99.90;;;;;;5493289;26;20466;-59
2024/04/12 00:03:38;;;;;;;4.37;0.50;;;11.20;99.90;;;;;;5488923;26;20529;-56
2024/04/12 00:06:15;;;;;;;0.80;0.43;;;11.00;99.90;;;;;;5494436;26;20579;-58
2024/04/12 00:08:42;;;;;;;3.33;0.50;;;10.90;99.90;;;;;;5489069;26;20465;-57
2024/04/12 00:11:16;;;;;;;0.70;0.50;;;10.90;99.90;;;;;;5493641;26;20524;-58
2024/04/12 00:13:43;;;;;;;0.80;0.40;;;10.80;99.90;;;;;;5488917;26;20513;-59
2024/04/12 00:16:12;;;;;;;0.50;0.30;;;10.80;1.00;;;;;;5493063;26;20883;-58
2024/04/12 00:18:39;;;;;;;1.20;0.47;;;10.90;1.00;;;;;;5488654;26;20575;-57
2024/04/12 00:21:08;;;;;;;0.67;0.40;;;10.90;1.00;;;;;;5491924;26;20573;-57
2024/04/12 00:23:34;;;;;;;0.80;0.50;;;10.90;1.00;;;;;;5493425;26;20465;-58
2024/04/12 00:26:03;;;;;;;0.60;0.40;;;10.90;1.00;;;;;;5491823;26;20864;-58
2024/04/12 00:28:34;;;;;;;1.17;0.50;;;10.90;1.00;;;;;;5491283;26;20505;-58
2024/04/12 00:31:06;;;;;;;0.80;0.60;;;10.90;1.00;;;;;;5486991;26;20462;-57
2024/04/12 00:33:34;;;;;;;0.80;0.40;;;10.90;1.00;;;;;;5490556;26;20473;-59
2024/04/12 00:36:12;;;;;;;2.60;0.50;;;10.90;1.00;;;;;;5490824;26;20461;-58
2024/04/12 00:38:41;;;;;;;0.80;0.57;;;11.00;1.00;;;;;;5487256;26;20513;-58
2024/04/12 00:41:18;;;;;;;0.77;0.40;;;11.00;1.00;;;;;;5492814;26;20655;-59
2024/04/12 00:43:51;;;;;;;1.07;0.33;;;10.90;1.00;;;;;;5490252;26;20596;-58
2024/04/12 00:46:23;;;;;;;0.97;0.50;;;10.90;1.00;;;;;;5488630;26;20454;-58
2024/04/12 00:48:51;;;;;;;1.10;0.50;;;10.90;1.00;;;;;;5492785;26;20524;-57
2024/04/12 00:51:21;;;;;;;2.63;0.40;;;10.80;1.00;;;;;;5487821;26;20470;-58
2024/04/12 00:53:56;;;;;;;0.47;0.30;;;10.80;1.00;;;;;;5492875;26;20469;-58
2024/04/12 00:56:27;;;;;;;2.60;0.40;;;10.80;1.00;;;;;;5488079;26;20533;-57
2024/04/12 00:58:56;;;;;;;1.13;0.47;;;10.70;1.00;;;;;;5506668;25;20458;-57
2024/04/12 01:01:26;;;;;;;1.50;0.40;;;10.70;1.00;;;;;;5498356;26;21022;-59
2024/04/12 01:03:54;;;;;;;1.17;0.50;;;10.80;1.00;;;;;;5506422;26;20469;-58
2024/04/12 01:06:24;;;;;;;0.53;0.40;;;10.80;1.00;;;;;;5491404;26;20526;-59
2024/04/12 01:08:51;;;;;;;1.23;0.40;;;10.70;1.00;;;;;;5497014;26;20967;-57
2024/04/12 01:11:22;;;;;;;0.73;0.47;;;10.60;1.00;;;;;;5488259;26;20470;-59
2024/04/12 01:13:49;;;;;;;0.90;0.40;;;10.60;1.00;;;;;;5493074;26;20586;-58
2024/04/12 01:16:21;;;;;;;0.60;0.40;;;10.60;1.00;;;;;;5501432;26;20457;-58
2024/04/12 01:18:47;;;;;;;1.00;0.33;;;10.50;1.00;;;;;;5494234;25;20545;-58
2024/04/12 01:21:16;;;;;;;0.40;0.37;;;10.40;99.90;;;;;;5498622;26;20522;-59
2024/04/12 01:23:43;;;;;;;0.80;0.40;;;10.30;99.90;;;;;;5492795;26;20579;-59
2024/04/12 01:26:17;;;;;;;0.90;0.37;;;10.30;1.00;;;;;;5505235;25;20522;-60
2024/04/12 01:28:44;;;;;;;0.50;0.37;;;10.40;1.00;;;;;;5488757;26;20578;-57
2024/04/12 01:31:15;;;;;;;0.67;0.43;;;10.40;99.90;;;;;;5491221;26;21014;-62
2024/04/12 01:33:43;;;;;;;1.13;0.30;;;10.40;99.90;;;;;;5487198;26;20582;-57
2024/04/12 01:36:17;;;;;;;0.60;0.50;;;10.40;99.90;;;;;;5491507;26;20724;-58
2024/04/12 01:38:53;;;;;;;0.90;0.40;;;10.40;99.90;;;;;;5495269;26;20575;-58
2024/04/12 01:41:27;;;;;;;0.93;0.50;;;10.40;1.00;;;;;;5486988;26;20570;-59
2024/04/12 01:43:53;;;;;;;2.03;0.40;;;10.40;1.00;;;;;;5493649;26;20525;-58
2024/04/12 01:46:27;;;;;;;0.60;0.30;;;10.40;1.00;;;;;;5491453;26;20545;-58
2024/04/12 01:48:54;;;;;;;2.70;0.50;;;10.40;1.00;;;;;;5491791;26;20534;-57
2024/04/12 01:51:25;;;;;;;0.73;0.40;;;10.40;1.00;;;;;;5491399;26;20466;-58
2024/04/12 01:53:54;;;;;;;1.63;0.50;;;10.50;1.00;;;;;;5494634;26;20522;-57
2024/04/12 01:56:26;;;;;;;1.83;0.40;;;10.50;1.00;;;;;;5496087;26;20469;-57
2024/04/12 01:58:54;;;;;;;0.43;0.30;;;10.50;1.00;;;;;;5498600;26;20499;-59
2024/04/12 02:01:26;;;;;;;1.70;0.53;;;10.50;99.90;;;;;;5487723;26;20494;-57
2024/04/12 02:03:53;;;;;;;1.33;0.57;;;10.40;99.90;;;;;;5498146;26;20473;-58
2024/04/12 02:06:23;;;;;;;0.70;0.40;;;10.50;1.00;;;;;;5500597;26;20541;-58
2024/04/12 02:08:49;;;;;;;0.60;0.40;;;10.40;1.00;;;;;;5497423;26;20978;-57
2024/04/12 02:11:23;;;;;;;2.30;0.50;;;10.30;1.00;;;;;;5493846;26;20481;-57
2024/04/12 02:13:52;;;;;;;0.63;0.40;;;10.20;99.90;;;;;;5493073;26;20563;-58
2024/04/12 02:16:21;;;;;;;0.83;0.50;;;10.30;99.90;;;;;;5494066;26;20514;-57
2024/04/12 02:18:47;;;;;;;0.60;0.43;;;10.30;1.00;;;;;;5491719;26;20461;-58
2024/04/12 02:21:18;;;;;;;0.80;0.40;;;10.20;81.60;;;;;;5491429;26;20470;-58
2024/04/12 02:23:45;;;;;;;2.30;0.43;;;10.20;99.90;;;;;;5487775;26;20477;-59
2024/04/12 02:26:15;;;;;;;0.70;0.40;;;10.10;99.90;;;;;;5490383;26;20543;-58
2024/04/12 02:28:43;;;;;;;1.07;0.50;;;10.10;1.00;;;;;;5486506;26;20496;-54
2024/04/12 02:31:14;;;;;;;1.57;0.40;;;10.10;1.00;;;;;;5491298;26;20497;-57
2024/04/12 02:33:42;;;;;;;0.90;0.40;;;10.00;1.00;;;;;;5486700;26;20609;-58
2024/04/12 02:36:16;;;;;;;0.60;0.40;;;9.80;1.00;;;;;;5501691;26;20582;-58
2024/04/12 02:38:44;;;;;;;0.73;0.47;;;9.80;1.00;;;;;;5486594;26;20525;-59
2024/04/12 02:41:16;;;;;;;1.10;0.40;;;9.70;1.00;;;;;;5498984;26;20509;-57
2024/04/12 02:43:44;;;;;;;1.37;0.60;;;9.70;98.30;;;;;;5488776;26;20458;-59
2024/04/12 02:46:16;;;;;;;1.40;0.43;;;9.70;99.90;;;;;;5490403;26;20862;-58
2024/04/12 02:48:43;;;;;;;0.77;0.40;;;9.70;99.90;;;;;;5486945;26;20528;-58
2024/04/12 02:51:14;;;;;;;2.10;0.50;;;9.80;1.00;;;;;;5492839;26;20508;-57
2024/04/12 02:53:42;;;;;;;0.80;0.40;;;9.80;1.00;;;;;;5485085;26;21079;-57
2024/04/12 02:56:13;;;;;;;0.80;0.50;;;9.80;1.00;;;;;;5490200;26;20474;-59
2024/04/12 02:58:41;;;;;;;1.13;0.50;;;9.80;1.00;;;;;;5486245;26;20836;-58
2024/04/12 03:01:11;;;;;;;3.03;0.50;;;9.90;1.00;;;;;;5490683;26;20457;-58
2024/04/12 03:03:41;;;;;;;2.50;0.43;;;10.00;99.90;;;;;;5490721;26;20470;-58
2024/04/12 03:06:11;;;;;;;3.07;0.50;;;10.10;1.00;;;;;;5489886;26;20518;-59
2024/04/12 03:08:38;;;;;;;1.93;0.40;;;10.00;1.00;;;;;;5489508;26;20780;-59
2024/04/12 03:11:21;;;;;;;1.50;0.50;;;9.80;1.00;;;;;;5489694;26;20516;-54
2024/04/12 03:13:50;;;;;;;0.70;0.40;;;9.80;1.00;;;;;;5487756;26;20577;-58
2024/04/12 03:16:20;;;;;;;2.23;0.47;;;9.80;1.00;;;;;;5488303;26;20544;-58
2024/04/12 03:18:51;;;;;;;0.80;0.40;;;9.80;1.00;;;;;;5491039;26;20534;-56
2024/04/12 03:21:21;;;;;;;1.77;0.40;;;9.80;1.00;;;;;;5493954;26;20465;-58
2024/04/12 03:23:48;;;;;;;1.07;0.30;;;9.70;1.00;;;;;;5494485;26;20533;-58
2024/04/12 03:26:18;;;;;;;0.67;0.50;;;9.60;99.90;;;;;;5494076;26;20881;-59
2024/04/12 03:28:45;;;;;;;0.70;0.40;;;9.60;99.90;;;;;;5490152;26;20506;-58
2024/04/12 03:31:15;;;;;;;1.00;0.40;;;9.60;99.90;;;;;;5494745;26;20540;-58
2024/04/12 03:33:44;;;;;;;0.70;0.30;;;9.60;1.00;;;;;;5489587;26;20564;-59
2024/04/12 03:36:53;;;;;;;2.40;0.50;;;9.60;1.00;;;;;;5494023;26;20474;-60
2024/04/12 03:39:34;;;;;;;1.00;0.50;;;9.60;1.00;;;;;;5491772;26;20889;-57
2024/04/12 03:42:08;;;;;;;1.37;0.50;;;9.60;99.90;;;;;;5492847;26;20525;-58
2024/04/12 03:44:36;;;;;;;0.70;0.40;;;9.50;99.90;;;;;;5492541;26;20614;-58
2024/04/12 03:47:07;;;;;;;1.30;0.50;;;9.50;99.90;;;;;;5488620;26;20518;-59
2024/04/12 03:49:36;;;;;;;0.70;0.40;;;9.50;99.90;;;;;;5495637;26;20518;-58
2024/04/12 03:52:11;;;;;;;1.20;0.50;;;9.50;99.90;;;;;;5486185;26;20469;-57
2024/04/12 03:54:37;;;;;;;0.67;0.50;;;9.50;99.90;;;;;;5491945;26;21162;-57
2024/04/12 03:57:09;;;;;;;0.70;0.30;;;9.50;51.30;;;;;;5492313;26;20525;-58
2024/04/12 03:59:37;;;;;;;1.10;0.60;;;9.50;1.00;;;;;;5496201;26;20892;-60
2024/04/12 04:02:09;;;;;;;0.60;0.40;;;9.50;1.00;;;;;;5488845;26;20469;-57
2024/04/12 04:04:44;;;;;;;1.40;0.60;;;9.50;99.90;;;;;;5498210;26;20459;-56
2024/04/12 04:07:16;;;;;;;0.73;0.50;;;9.60;99.90;;;;;;5495905;26;20457;-58
2024/04/12 04:09:43;;;;;;;0.87;0.50;;;9.60;1.00;;;;;;5492471;26;20517;-59
2024/04/12 04:12:14;;;;;;;1.77;0.50;;;9.60;1.00;;;;;;5498679;26;20578;-59
2024/04/12 04:14:47;;;;;;;0.90;0.50;;;9.70;1.00;;;;;;5497608;26;20476;-58
2024/04/12 04:17:18;;;;;;;0.67;0.40;;;9.70;99.90;;;;;;5495483;26;20516;-57
2024/04/12 04:19:45;;;;;;;1.57;0.60;;;9.70;99.90;;;;;;5494033;26;20937;-58
2024/04/12 04:22:39;;;;;;;0.77;0.50;;;9.70;1.00;;;;;;5500331;26;20466;-58
2024/04/12 04:25:07;;;;;;;0.73;0.50;;;9.70;1.00;;;;;;5490162;26;20729;-59
2024/04/12 04:27:37;;;;;;;0.70;0.40;;;9.60;1.00;;;;;;5498717;26;20544;-58
2024/04/12 04:30:05;;;;;;;0.80;0.30;;;9.60;1.00;;;;;;5487222;26;20509;-57
2024/04/12 04:32:34;;;;;;;5.60;0.50;;;9.50;79.20;;;;;;5492162;26;20788;-59
2024/04/12 04:35:05;;;;;;;3.50;0.67;;;9.50;99.90;;;;;;5492573;26;20515;-59
2024/04/12 04:37:37;;;;;;;1.00;0.50;;;9.60;99.90;;;;;;5495246;26;20960;-59
2024/04/12 04:40:10;;;;;;;1.10;0.40;;;9.60;1.00;;;;;;5491881;26;20512;-59
2024/04/12 04:42:39;;;;;;;1.63;0.43;;;9.70;1.00;;;;;;5492339;26;20638;-58
2024/04/12 04:45:07;;;;;;;5.60;0.50;;;9.70;1.00;;;;;;5493376;26;20469;-59
2024/04/12 04:47:39;;;;;;;1.23;0.50;;;9.80;1.00;;;;;;5493296;26;20462;-57
2024/04/12 04:50:08;;;;;;;1.00;0.47;;;9.80;1.00;;;;;;5487694;26;20730;-58
2024/04/12 04:52:40;;;;;;;0.83;0.50;;;9.90;99.90;;;;;;5501177;26;20502;-59
2024/04/12 04:55:07;;;;;;;0.70;0.50;;;9.90;99.90;;;;;;5495701;26;20526;-57
2024/04/12 04:57:43;;;;;;;1.37;0.60;;;9.80;56.10;;;;;;5496658;26;20654;-58
2024/04/12 05:00:18;;;;;;;1.13;0.60;;;9.90;1.00;;;;;;5490976;26;20520;-58
2024/04/12 05:02:49;;;;;;;1.13;0.47;;;9.80;1.00;;;;;;5499486;26;20517;-59
2024/04/12 05:05:22;;;;;;;3.83;0.50;;;9.80;1.00;;;;;;5463560;26;20588;-59
2024/04/12 05:07:55;;;;;;;1.67;0.57;;;9.70;99.90;;;;;;5503429;26;20515;-59
2024/04/12 05:10:21;;;;;;;1.03;0.50;;;9.80;99.90;;;;;;5526462;26;20577;-57
2024/04/12 05:12:50;;;;;;;1.93;0.50;;;9.80;99.90;;;;;;5514586;26;20533;-59
2024/04/12 05:18:16;;;;;;;1.60;0.47;;;9.70;1.00;;;;;;5488120;26;20794;-58
2024/04/12 05:20:43;;;;;;;0.70;0.50;;;9.70;1.00;;;;;;5499493;26;20907;-59
2024/04/12 05:23:16;;;;;;;1.37;0.50;;;9.70;99.90;;;;;;5522169;25;20472;-59
2024/04/12 05:25:43;;;;;;;2.80;0.57;;;9.70;99.90;;;;;;5451791;26;20749;-58
2024/04/12 05:28:12;;;;;;;0.80;0.50;;;9.70;99.90;;;;;;5498025;26;20503;-58
2024/04/12 05:30:42;;;;;;;0.90;0.60;;;9.70;1.00;;;;;;5512432;26;20516;-59
2024/04/12 05:33:12;;;;;;;2.70;0.50;;;9.80;1.00;;;;;;5492726;26;20885;-59
2024/04/12 05:35:40;;;;;;;0.67;0.50;;;9.90;1.00;;;;;;5521146;26;20518;-59
2024/04/12 05:38:09;;;;;;;0.77;0.50;;;9.90;99.90;;;;;;5525089;26;20448;-59
2024/04/12 05:40:41;;;;;;;1.07;0.50;;;9.90;42.10;;;;;;5506024;26;20943;-58
2024/04/12 05:43:13;;;;;;;0.80;0.50;;;9.90;15.40;;;;;;5498031;26;20525;-58
2024/04/12 05:45:40;;;;;;;0.90;0.50;;;9.80;99.90;;;;;;5482607;26;20635;-58
2024/04/12 05:48:13;;;;;;;0.97;0.60;;;9.80;99.90;;;;;;5524238;26;20520;-61
2024/04/12 05:50:39;;;;;;;1.40;0.50;;;9.80;97.20;;;;;;5513827;26;20990;-61
2024/04/12 05:53:10;;;;;;;1.00;0.60;;;9.70;99.90;;;;;;5527632;26;20570;-59
2024/04/12 05:55:44;;;;;;;1.53;0.70;;;9.70;99.90;;;;;;5494534;26;20445;-58
2024/04/12 05:58:13;;;;;;;0.90;0.50;;;9.70;1.00;;;;;;5522324;26;20491;-59
2024/04/12 06:00:41;;;;;;;1.93;0.57;;;9.70;99.90;;;;;;5500914;26;20720;-59
2024/04/12 06:03:13;;;;;;;0.80;0.50;;;9.60;1.00;;;;;;5513183;26;20762;-59
2024/04/12 06:05:40;;;;;;;0.97;0.60;;;9.70;1.00;;;;;;5528074;26;20480;-59
2024/04/12 06:08:12;;;;;;;0.70;0.60;;;9.80;1.00;;;;;;5527329;26;20774;-60
2024/04/12 06:10:44;;;;;;;1.20;0.70;;;9.80;99.90;;;;;;5527527;26;20488;-60
2024/04/12 06:13:16;;;;;;;0.90;0.50;;;9.90;99.90;;;;;;5489845;26;20458;-59
2024/04/12 06:15:43;;;;;;;3.97;0.80;;;9.90;99.90;;;;;;5489635;26;20568;-59
2024/04/12 06:18:12;;;;;;;1.87;0.77;;;10.00;1.00;;;;;;5490756;26;20526;-59
2024/04/12 06:20:39;;;;;;;1.17;0.60;;;10.10;1.00;;;;;;5490156;26;20780;-60
2024/04/12 06:23:10;;;;;;;1.70;1.00;;;10.10;1.00;;;;;;5490635;26;20543;-60
2024/04/12 06:25:38;;;;;;;3.80;0.75;;;10.20;1.00;;;;;;5473001;26;20355;-61
2024/04/12 06:28:11;;;;;;;1.30;0.67;;;10.20;1.00;;;;;;5490611;26;20309;-61
2024/04/12 06:30:39;;;;;;;1.00;0.57;;;10.30;99.90;;;;;;5486648;26;20466;-60
2024/04/12 06:33:08;;;;;;;0.90;0.60;;;10.40;99.90;;;;;;5491664;26;20529;-60
2024/04/12 06:35:36;;;;;;;2.30;0.70;;;10.40;1.00;;;;;;5489808;26;20466;-61
2024/04/12 06:38:08;;;;;;;1.43;0.60;;;10.50;1.00;;;;;;5488531;26;20524;-61
2024/04/12 06:40:34;;;;;;;1.00;0.70;;;10.60;99.90;;;;;;5490797;26;20454;-59
2024/04/12 06:43:05;;;;;;;1.03;0.80;;;10.70;99.90;;;;;;5490394;26;20554;-60
2024/04/12 06:45:41;;;;;;;1.73;0.80;;;10.70;66.00;;;;;;5486129;26;20470;-60
2024/04/12 06:48:10;;;;;;;1.03;0.50;;;10.80;99.90;;;;;;5462172;26;21137;-60
2024/04/12 06:50:36;;;;;;;1.60;0.63;;;10.80;99.90;;;;;;5452917;26;20468;-60
2024/04/12 06:53:08;;;;;;;3.60;0.70;;;10.90;99.90;;;;;;5482119;26;20469;-58
2024/04/12 06:55:45;;;;;;;1.60;0.60;;;11.00;99.90;;;;;;5461244;26;20730;-58
2024/04/12 06:58:17;;;;;;;1.37;0.67;;;11.20;99.90;;;;;;5455567;26;20982;-58
2024/04/12 07:00:46;;;;;;;1.50;0.63;;;11.40;1.00;;;;;;5461333;26;20470;-59
2024/04/12 07:03:16;;;;;;;1.40;0.60;;;11.50;1.00;;;;;;5486937;26;20465;-59
2024/04/12 07:05:47;;;;;;;4.33;0.60;;;11.50;1.00;;;;;;5492528;26;20522;-59
2024/04/12 07:08:16;;;;;;;1.03;0.60;;;11.60;1.00;;;;;;5421021;26;20788;-60
2024/04/12 07:10:42;;;;;;;0.97;0.57;;;11.70;1.00;;;;;;5493578;26;20879;-59
2024/04/12 07:13:11;;;;;;;1.00;0.60;;;11.80;1.00;;;;;;5507079;26;20511;-59
2024/04/12 07:15:38;;;;;;;1.77;0.63;;;11.90;1.00;;;;;;5525026;26;21087;-59
2024/04/12 07:18:11;;;;;;;3.90;0.70;;;12.00;1.00;;;;;;5513341;26;20468;-59
2024/04/12 07:20:40;;;;;;;2.85;0.77;;;12.10;1.00;;;;;;5525959;26;20360;-59
2024/04/12 07:23:10;;;;;;;1.33;0.60;;;12.20;1.00;;;;;;5497266;26;20333;-59
2024/04/12 07:25:39;;;;;;;1.20;0.60;;;12.30;1.00;;;;;;5507838;26;20452;-60
2024/04/12 07:28:09;;;;;;;2.10;0.70;;;12.60;1.00;;;;;;5521657;26;20506;-59
2024/04/12 07:30:37;;;;;;;0.70;0.50;;;12.80;99.90;;;;;;5507301;26;20734;-60
2024/04/12 07:33:11;;;;;;;3.47;0.70;;;13.00;99.90;;;;;;5514749;26;20582;-59
2024/04/12 07:35:39;;;;;;;1.83;0.70;;;13.10;99.90;;;;;;5490485;26;20508;-59
2024/04/12 07:38:08;;;;;;;2.60;0.80;;;13.10;99.90;;;;;;5501281;26;20485;-59
2024/04/12 07:40:39;;;;;;;1.60;0.67;;;13.20;99.90;;;;;;5507998;26;20574;-59
2024/04/12 07:43:12;;;;;;;1.13;0.70;;;13.40;99.90;;;;;;5495357;26;20590;-59
2024/04/12 07:45:38;;;;;;;2.33;0.73;;;13.50;99.90;;;;;;5495632;26;20462;-59
2024/04/12 07:48:27;;;;;;;1.00;0.73;;;13.60;96.90;;;;;;5493843;26;20513;-59
2024/04/12 07:50:54;;;;;;;2.07;0.87;;;13.70;34.90;;;;;;5477867;26;20724;-59
2024/04/12 07:53:24;;;;;;;3.40;0.87;;;13.80;12.00;;;;;;5492945;26;20583;-59
2024/04/12 07:55:58;;;;;;;2.10;0.80;;;13.80;1.00;;;;;;5493348;26;20454;-59
2024/04/12 07:58:34;;;;;;;2.17;0.80;;;13.90;1.00;;;;;;5525753;26;20511;-59
2024/04/12 08:01:09;;;;;;;1.30;0.80;;;13.90;1.00;;;;;;5507757;26;20570;-60
2024/04/12 08:03:41;;;;;;;2.63;0.80;;;14.00;1.00;;;;;;5493926;26;20478;-60
2024/04/12 08:06:18;;;;;;;3.63;0.87;;;14.00;1.00;;;;;;5514524;26;20467;-59
2024/04/12 08:09:03;;;;;;;2.90;0.97;;;14.20;1.00;;;;;;5475972;26;20477;-60
2024/04/12 08:11:33;;;;;;;1.67;0.90;;;14.30;1.00;;;;;;5495217;26;20468;-60
2024/04/12 08:14:08;;;;;;;2.20;1.20;;;14.40;1.00;;;;;;5521235;26;20476;-59
2024/04/12 08:16:35;;;;;;;1.20;0.80;;;14.60;1.00;;;;;;5472910;26;20453;-59
2024/04/12 08:19:12;;;;;;;3.77;1.10;;;14.70;1.00;;;;;;5475102;26;20452;-58
2024/04/12 08:21:39;;;;;;;1.23;0.80;;;14.90;1.00;;;;;;5491194;26;20525;-58
2024/04/12 08:24:10;;;;;;;1.30;0.70;;;14.90;1.00;;;;;;5496168;26;20477;-58
2024/04/12 08:26:37;;;;;;;1.67;0.80;;;14.90;1.00;;;;;;5509839;26;20893;-58
2024/04/12 08:29:11;;;;;;;2.50;0.90;;;15.00;1.00;;;;;;5520717;26;20559;-58
2024/04/12 08:31:38;;;;;;;2.17;0.80;;;15.00;1.00;;;;;;5497778;26;20496;-60
2024/04/12 08:34:14;;;;;;;1.30;0.70;;;15.20;1.00;;;;;;5495111;26;20713;-59
2024/04/12 08:36:40;;;;;;;2.43;0.80;;;15.20;1.00;;;;;;5495984;26;20528;-59
2024/04/12 08:39:25;;;;;;;1.77;1.00;;;15.40;1.00;;;;;;5498908;26;20478;-58
2024/04/12 08:41:59;;;;;;;1.43;0.80;;;15.50;1.00;;;;;;5525029;26;20572;-59
2024/04/12 08:44:29;;;;;;;1.90;0.77;;;15.50;1.00;;;;;;5501551;26;20522;-58
2024/04/12 08:47:15;;;;;;;2.40;0.87;;;15.60;1.00;;;;;;5529283;26;20456;-58
2024/04/12 08:49:48;;;;;;;5.03;0.90;;;15.60;1.00;;;;;;5505569;26;20572;-59
2024/04/12 08:52:24;;;;;;;3.77;1.40;;;15.70;1.00;;;;;;5512890;26;20743;-59
2024/04/12 08:54:55;;;;;;;1.20;0.80;;;15.70;1.00;;;;;;5496020;26;20517;-59
2024/04/12 08:57:23;;;;;;;4.20;0.80;;;15.80;1.00;;;;;;5460560;26;20462;-59
2024/04/12 08:59:51;;;;;;;1.33;0.80;;;16.10;1.00;;;;;;5485264;26;20537;-59
2024/04/12 09:02:21;;;;;;;2.70;0.80;;;16.20;1.00;;;;;;5485474;26;20479;-59
2024/04/12 09:04:54;;;;;;;2.10;0.90;;;16.30;1.00;;;;;;5492383;26;20450;-59
2024/04/12 09:07:20;;;;;;;1.23;0.70;;;16.50;1.00;;;;;;5522603;26;20774;-62
2024/04/12 09:09:55;;;;;;;2.03;0.90;;;16.60;1.00;;;;;;5495796;26;20582;-59
2024/04/12 09:12:24;;;;;;;2.73;0.80;;;16.70;1.00;;;;;;5526645;25;20598;-59
2024/04/12 09:14:54;;;;;;;2.03;0.80;;;16.90;1.00;;;;;;5529359;26;20461;-59
2024/04/12 09:17:26;;;;;;;4.10;0.90;;;17.10;1.00;;;;;;5528270;26;20460;-58
2024/04/12 09:19:59;;;;;;;1.03;0.67;;;17.10;1.00;;;;;;5521520;26;20436;-59
2024/04/12 09:22:27;;;;;;;2.00;0.70;;;17.20;1.00;;;;;;5525648;26;20838;-59
2024/04/12 09:24:58;;;;;;;2.00;0.90;;;17.40;1.00;;;;;;5502055;26;20915;-59
2024/04/12 09:27:34;;;;;;;2.27;0.80;;;17.50;1.00;;;;;;5518236;26;20507;-59
2024/04/12 09:32:50;;;;;;;1.00;0.87;;;17.70;1.00;;;;;;5527415;26;20582;-59
2024/04/12 09:32:52;;;;;;;1.80;0.93;;;17.90;1.00;;;;;;5509878;26;21024;-59
2024/04/12 09:35:27;;;;;;;2.27;0.90;;;18.10;1.00;;;;;;5526314;26;20573;-58
2024/04/12 09:38:04;;;;;;;1.90;0.70;;;18.20;1.00;;;;;;5525837;26;20451;-58
2024/04/12 09:40:34;;;;;;;1.30;0.80;;;18.10;1.00;;;;;;5525585;26;20459;-58
2024/04/12 09:45:52;;;;;;;1.20;0.80;;;18.20;1.00;;;;;;5526462;26;20587;-59
2024/04/12 10:38:47;;;;;;;1.57;0.90;;;21.80;1.00;;;;;;5475977;26;20717;-62
2024/04/12 10:41:19;;;;;;;1.33;0.90;;;22.00;1.00;;;;;;5488105;26;20952;-58
2024/04/12 10:43:47;;;;;;;1.60;1.00;;;21.70;1.00;;;;;;5486553;26;20642;-58
2024/04/12 10:46:13;;;;;;;1.30;0.80;;;21.70;1.00;;;;;;5488911;26;20697;-58
2024/04/12 10:48:44;;;;;;;1.70;0.97;;;21.70;1.00;;;;;;5496994;26;20584;-57
2024/04/12 10:51:14;;;;;;;2.03;1.20;;;21.80;1.00;;;;;;5497863;26;20474;-59
2024/04/12 10:53:46;;;;;;;3.40;1.40;;;21.70;1.00;;;;;;5487894;26;20568;-59
2024/04/12 10:56:18;;;;;;;1.47;0.90;;;21.90;1.00;;;;;;5478392;26;20912;-59
2024/04/12 10:58:51;;;;;;;1.30;0.97;;;22.00;1.00;;;;;;5468739;26;20513;-59
2024/04/12 11:01:18;;;;;;;1.93;0.90;;;22.10;1.00;;;;;;5469080;26;20601;-58
2024/04/12 11:03:56;;;;;;;1.40;0.90;;;22.30;1.00;;;;;;5476583;26;20468;-58
2024/04/12 11:06:30;;;;;;;3.17;0.97;;;21.60;1.00;;;;;;5473393;26;20911;-58
2024/04/12 11:09:00;;;;;;;1.30;0.70;;;21.70;1.00;;;;;;5497888;26;20526;-57
2024/04/12 11:11:38;;;;;;;4.10;0.90;;;21.80;1.00;;;;;;5484655;26;20553;-58
2024/04/12 11:14:15;;;;;;;3.40;1.07;;;21.90;1.00;;;;;;5494501;26;20523;-58
2024/04/12 11:33:39;;;;;;;1.30;0.80;;;22.70;1.00;;;;;;5479463;26;20513;-58
2024/04/12 11:36:10;;;;;;;1.37;0.77;;;22.80;1.00;;;;;;5483341;26;20484;-57
2024/04/12 11:38:41;;;;;;;1.30;0.87;;;22.80;1.00;;;;;;5484705;26;20469;-58
2024/04/12 11:41:07;;;;;;;1.03;0.77;;;22.80;1.00;;;;;;5492692;26;20585;-58
2024/04/12 11:43:39;;;;;;;1.23;1.00;;;22.90;1.00;;;;;;5506856;26;20453;-57
2024/04/12 11:46:05;;;;;;;2.53;1.07;;;23.10;1.00;;;;;;5491532;26;20735;-58
2024/04/12 11:48:34;;;;;;;2.23;0.90;;;22.80;1.00;;;;;;5485621;26;20516;-57
2024/04/12 11:51:08;;;;;;;2.07;1.20;;;22.90;1.00;;;;;;5485862;26;20469;-59
2024/04/12 11:53:37;;;;;;;2.40;0.93;;;23.00;1.00;;;;;;5487068;26;20516;-59
2024/04/12 11:56:04;;;;;;;3.33;1.10;;;22.70;1.00;;;;;;5488862;26;21175;-58
2024/04/12 11:58:33;;;;;;;2.13;0.90;;;22.60;1.00;;;;;;5494187;26;20510;-58
2024/04/12 12:01:04;;;;;;;1.93;1.20;;;22.80;1.00;;;;;;5487924;26;20466;-57
2024/04/12 12:03:33;;;;;;;1.23;0.90;;;23.00;1.00;;;;;;5494929;26;21087;-59
2024/04/12 12:06:06;;;;;;;3.00;0.90;;;22.60;1.00;;;;;;5493739;26;20477;-59
2024/04/12 12:08:41;;;;;;;2.40;0.90;;;22.50;1.00;;;;;;5493966;26;20474;-59
2024/04/12 12:11:08;;;;;;;1.80;1.00;;;22.90;1.00;;;;;;5479541;26;20477;-58
2024/04/12 12:13:42;;;;;;;1.40;0.80;;;23.10;1.00;;;;;;5499635;26;20449;-58
2024/04/12 12:16:14;;;;;;;4.10;1.60;;;23.30;1.00;;;;;;5492012;26;20450;-59
2024/04/12 12:18:44;;;;;;;2.33;0.90;;;23.50;1.00;;;;;;5488960;26;20525;-58
2024/04/12 12:21:11;;;;;;;1.83;1.03;;;23.60;1.00;;;;;;5493038;26;20570;-58
2024/04/12 12:23:39;;;;;;;1.20;0.87;;;23.60;1.00;;;;;;5489827;26;20518;-59
2024/04/12 12:26:08;;;;;;;3.13;1.10;;;23.70;1.00;;;;;;5489171;26;20579;-58
2024/04/12 12:28:37;;;;;;;2.37;1.00;;;23.90;1.00;;;;;;5489794;26;20509;-58
2024/04/12 12:31:06;;;;;;;2.13;1.00;;;23.80;1.00;;;;;;5478602;26;20467;-59
2024/04/12 12:33:38;;;;;;;3.17;0.90;;;23.70;1.00;;;;;;5487705;26;20465;-59
2024/04/12 12:36:05;;;;;;;1.80;1.10;;;23.80;1.00;;;;;;5459073;26;21000;-59
2024/04/12 12:38:36;;;;;;;1.27;0.90;;;23.90;1.00;;;;;;5452670;26;20545;-59
2024/04/12 12:41:03;;;;;;;1.40;0.90;;;23.90;1.00;;;;;;5452432;26;20525;-58
2024/04/12 12:43:32;;;;;;;2.20;0.93;;;23.90;1.00;;;;;;5451894;26;20451;-59
2024/04/12 12:45:58;;;;;;;3.30;1.30;;;23.60;1.00;;;;;;5451521;26;20474;-59
2024/04/12 12:48:27;;;;;;;1.97;1.00;;;23.40;1.00;;;;;;5454526;26;20515;-59
2024/04/12 12:50:57;;;;;;;1.60;0.90;;;23.40;1.00;;;;;;5451484;26;20493;-59
2024/04/12 12:53:30;;;;;;;10.00;5.43;;;23.50;1.00;;;;;;5457980;26;20653;-59
2024/04/12 12:55:56;;;;;;;2.40;1.27;;;23.70;1.00;;;;;;5456198;26;20470;-60
2024/04/12 12:58:26;;;;;;;2.00;0.93;;;23.90;1.00;;;;;;5454615;26;20875;-60
2024/04/12 13:00:59;;;;;;;1.30;0.90;;;23.90;1.00;;;;;;5453351;26;20511;-59
2024/04/12 13:03:30;;;;;;;2.37;1.33;;;23.70;1.00;;;;;;5449996;26;20481;-58
2024/04/12 13:06:06;;;;;;;2.00;1.10;;;23.60;1.00;;;;;;5455592;26;20471;-60
2024/04/12 13:08:35;;;;;;;2.10;1.00;;;23.30;1.00;;;;;;5458262;26;20489;-58
2024/04/12 13:11:08;;;;;;;2.50;1.20;;;23.40;1.00;;;;;;5447848;26;20530;-58
2024/04/12 13:13:39;;;;;;;1.90;1.10;;;23.50;1.00;;;;;;5454006;26;20455;-58
2024/04/12 13:16:11;;;;;;;3.00;1.20;;;23.60;1.00;;;;;;5452305;26;20467;-58
2024/04/12 13:18:44;;;;;;;3.27;1.10;;;23.40;1.00;;;;;;5448695;26;21524;-58
2024/04/12 13:21:13;;;;;;;2.13;1.07;;;23.40;1.00;;;;;;5454658;26;20605;-58
2024/04/12 13:23:42;;;;;;;6.53;1.00;;;23.40;1.00;;;;;;5454834;26;20519;-59
2024/04/12 13:26:09;;;;;;;2.67;0.90;;;23.40;1.00;;;;;;5450311;26;20712;-59
2024/04/12 13:28:38;;;;;;;3.97;1.20;;;23.50;1.00;;;;;;5456054;26;20457;-58
2024/04/12 13:31:04;;;;;;;1.83;1.00;;;23.50;1.00;;;;;;5494129;26;20453;-58
2024/04/12 13:33:33;;;;;;;2.33;1.07;;;23.40;1.00;;;;;;5506103;26;20466;-59
2024/04/12 13:36:00;;;;;;;1.67;0.90;;;23.40;1.00;;;;;;5479965;26;20479;-59
2024/04/12 13:38:31;;;;;;;1.33;0.73;;;23.40;1.00;;;;;;5477932;26;21124;-58
2024/04/12 13:41:01;;;;;;;1.77;0.90;;;23.40;1.00;;;;;;5462830;26;20517;-58
2024/04/12 13:43:32;;;;;;;1.20;0.77;;;23.20;1.00;;;;;;5454756;26;20458;-58
2024/04/12 13:51:33;;;;;;;2.23;0.60;;;23.00;1.00;;;;;;5453700;26;20527;-59
2024/04/12 13:54:08;;;;;;;2.70;0.70;;;23.10;1.00;;;;;;5447828;26;20469;-60
2024/04/12 13:56:37;;;;;;;1.27;0.80;;;23.20;1.00;;;;;;5447684;26;20520;-59
2024/04/12 13:59:10;;;;;;;2.00;0.73;;;23.30;1.00;;;;;;5448712;26;20468;-58
2024/04/12 14:01:40;;;;;;;1.77;0.63;;;23.30;1.00;;;;;;5448439;26;20530;-57
2024/04/12 14:04:09;;;;;;;3.00;0.70;;;23.10;1.00;;;;;;5450075;26;20514;-57
2024/04/12 14:06:37;;;;;;;1.40;0.60;;;23.00;1.00;;;;;;5449490;26;20474;-57
2024/04/12 14:09:12;;;;;;;1.73;0.67;;;23.00;1.00;;;;;;5468810;26;20601;-57
2024/04/12 14:11:39;;;;;;;2.60;0.60;;;22.90;1.00;;;;;;5458410;26;20537;-58
2024/04/12 14:14:08;;;;;;;1.10;0.60;;;22.90;1.00;;;;;;5447176;26;20454;-59
2024/04/12 14:16:41;;;;;;;2.00;0.60;;;23.00;1.00;;;;;;5444332;26;21066;-58
2024/04/12 14:19:17;;;;;;;0.87;0.60;;;22.90;1.00;;;;;;5463726;26;20577;-58
2024/04/12 14:21:45;;;;;;;0.93;0.50;;;22.90;1.00;;;;;;5482831;26;20914;-58
2024/04/12 14:26:58;;;;;;;1.10;0.50;;;22.70;1.00;;;;;;5454811;26;20510;-59
2024/04/12 14:29:26;;;;;;;1.30;0.60;;;22.80;1.00;;;;;;5451266;26;20722;-58
2024/04/12 14:31:56;;;;;;;1.30;0.50;;;22.80;1.00;;;;;;5452254;26;21121;-58
2024/04/12 14:34:22;;;;;;;1.30;0.40;;;22.80;1.00;;;;;;5457620;26;20532;-59
2024/04/12 14:36:51;;;;;;;2.70;0.67;;;22.80;1.00;;;;;;5467952;26;20482;-58